createdAt,value
2018-03-04T00:00:43.750Z,22.20
2018-03-04T00:03:11.198Z,23.63
2018-03-04T00:05:38.656Z,23.73
2018-03-04T00:08:06.107Z,23.93
2018-03-04T00:10:33.570Z,22.40
2018-03-04T00:13:01.022Z,22.40
2018-03-04T00:15:28.497Z,23.37
2018-03-04T00:17:55.944Z,22.47
2018-03-04T00:20:23.408Z,21.90
2018-03-04T00:22:50.862Z,23.83
2018-03-04T00:25:18.313Z,22.20
2018-03-04T00:27:45.814Z,23.33
2018-03-04T00:30:13.237Z,23.40
2018-03-04T00:32:40.685Z,23.07
2018-03-04T00:35:08.146Z,21.80
2018-03-04T00:37:35.594Z,25.10
2018-03-04T00:40:03.051Z,24.23
2018-03-04T00:42:30.498Z,25.00
2018-03-04T00:44:57.957Z,21.73
2018-03-04T00:47:25.407Z,21.63
2018-03-04T00:49:52.865Z,21.67
2018-03-04T00:52:20.309Z,23.30
2018-03-04T00:54:47.765Z,24.00
2018-03-04T00:57:15.217Z,23.10
2018-03-04T00:59:42.697Z,22.83
2018-03-04T01:02:10.204Z,23.13
2018-03-04T01:04:37.626Z,23.60
2018-03-04T01:07:05.084Z,21.47
2018-03-04T01:09:32.549Z,24.10
2018-03-04T01:12:00.030Z,22.67
2018-03-04T01:14:28.252Z,22.17
2018-03-04T01:16:56.457Z,22.10
2018-03-04T01:19:23.926Z,22.27
2018-03-04T01:21:51.385Z,24.83
2018-03-04T01:24:18.858Z,22.73
2018-03-04T01:26:47.073Z,22.90
2018-03-04T01:29:14.532Z,23.77
2018-03-04T01:31:42.010Z,22.50
2018-03-04T01:34:09.466Z,22.60
2018-03-04T01:36:36.934Z,22.93
2018-03-04T01:39:04.389Z,22.70
2018-03-04T01:41:31.856Z,22.20
2018-03-04T01:44:00.145Z,23.50
2018-03-04T01:46:27.751Z,21.90
2018-03-04T01:48:55.201Z,22.30
2018-03-04T01:51:22.685Z,22.63
2018-03-04T01:53:50.151Z,23.90
2018-03-04T01:56:17.619Z,23.80
2018-03-04T01:58:45.065Z,23.03
2018-03-04T02:01:12.525Z,23.57
2018-03-04T02:03:39.981Z,22.60
2018-03-04T02:06:07.431Z,22.77
2018-03-04T02:08:34.881Z,24.00
2018-03-04T02:11:02.359Z,25.10
2018-03-04T02:13:29.817Z,24.70
2018-03-04T02:15:57.286Z,23.07
2018-03-04T02:18:24.741Z,23.80
2018-03-04T02:20:52.218Z,24.77
2018-03-04T02:23:20.436Z,21.63
2018-03-04T02:25:47.897Z,24.07
2018-03-04T02:28:15.369Z,22.30
2018-03-04T02:30:42.823Z,23.03
2018-03-04T02:33:10.326Z,23.50
2018-03-04T02:35:38.550Z,23.67
2018-03-04T02:38:06.005Z,24.43
2018-03-04T02:40:33.475Z,25.47
2018-03-04T02:43:01.689Z,23.93
2018-03-04T02:45:29.165Z,24.20
2018-03-04T02:47:56.605Z,24.30
2018-03-04T02:50:24.105Z,23.63
2018-03-04T02:52:51.562Z,24.20
2018-03-04T02:55:19.021Z,24.67
2018-03-04T02:57:46.477Z,24.50
2018-03-04T03:00:13.933Z,22.90
2018-03-04T03:02:41.393Z,23.23
2018-03-04T03:05:08.873Z,23.70
2018-03-04T03:07:36.509Z,23.90
2018-03-04T03:10:03.970Z,24.17
2018-03-04T03:12:31.436Z,24.97
2018-03-04T03:14:58.884Z,24.37
2018-03-04T03:17:26.345Z,25.00
2018-03-04T03:19:53.796Z,24.33
2018-03-04T03:22:21.258Z,25.77
2018-03-04T03:24:48.707Z,24.13
2018-03-04T03:27:16.170Z,24.70
2018-03-04T03:29:43.633Z,24.30
2018-03-04T03:32:11.238Z,23.97
2018-03-04T03:34:38.705Z,25.10
2018-03-04T03:37:06.934Z,23.83
2018-03-04T03:39:34.386Z,26.20
2018-03-04T03:42:02.605Z,24.20
2018-03-04T03:44:30.822Z,24.40
2018-03-04T03:46:59.058Z,25.00
2018-03-04T03:49:27.277Z,25.70
2018-03-04T03:51:54.754Z,25.70
2018-03-04T03:54:22.204Z,25.30
2018-03-04T03:56:49.673Z,26.10
2018-03-04T03:59:17.885Z,24.17
2018-03-04T04:01:46.103Z,24.93
2018-03-04T04:04:13.558Z,23.47
2018-03-04T04:06:41.021Z,25.10
2018-03-04T04:09:08.473Z,26.87
2018-03-04T04:11:35.939Z,24.97
2018-03-04T04:14:03.393Z,26.03
2018-03-04T04:16:30.848Z,23.93
2018-03-04T04:18:58.304Z,25.80
2018-03-04T04:21:25.762Z,25.50
2018-03-04T04:23:53.219Z,25.97
2018-03-04T04:26:20.678Z,25.60
2018-03-04T04:28:48.885Z,26.17
2018-03-04T04:31:16.358Z,25.33
2018-03-04T04:33:43.800Z,25.93
2018-03-04T04:36:11.270Z,25.07
2018-03-04T04:38:39.514Z,25.00
2018-03-04T04:41:06.977Z,27.00
2018-03-04T04:43:34.428Z,26.63
2018-03-04T04:46:01.885Z,26.90
2018-03-04T04:48:29.340Z,26.77
2018-03-04T04:50:56.801Z,26.80
2018-03-04T04:53:24.258Z,26.53
2018-03-04T04:55:51.729Z,28.10
2018-03-04T04:58:19.168Z,25.40
2018-03-04T05:00:46.646Z,26.53
2018-03-04T05:03:14.094Z,27.03
2018-03-04T05:05:41.563Z,25.73
2018-03-04T05:08:09.013Z,26.00
2018-03-04T05:10:36.543Z,26.43
2018-03-04T05:13:03.942Z,25.37
2018-03-04T05:15:31.400Z,26.10
2018-03-04T05:17:58.870Z,26.60
2018-03-04T05:20:27.088Z,25.33
2018-03-04T05:22:54.553Z,26.67
2018-03-04T05:25:22.005Z,26.97
2018-03-04T05:27:49.521Z,25.57
2018-03-04T05:30:17.744Z,27.33
2018-03-04T05:32:45.196Z,25.67
2018-03-04T05:35:12.662Z,26.50
2018-03-04T05:37:40.142Z,27.30
2018-03-04T05:40:07.610Z,28.50
2018-03-04T05:42:35.844Z,29.67
2018-03-04T05:45:03.309Z,28.73
2018-03-04T05:47:30.797Z,27.00
2018-03-04T05:49:58.249Z,27.27
2018-03-04T05:52:25.708Z,25.93
2018-03-04T05:54:53.159Z,27.37
2018-03-04T05:57:20.670Z,28.40
2018-03-04T05:59:48.084Z,27.30
2018-03-04T06:02:15.557Z,25.97
2018-03-04T06:04:43.831Z,28.00
2018-03-04T06:07:12.057Z,28.83
2018-03-04T06:09:39.517Z,30.17
2018-03-04T06:12:06.972Z,31.63
2018-03-04T06:14:34.433Z,29.97
2018-03-04T06:17:01.902Z,29.47
2018-03-04T06:19:29.349Z,28.33
2018-03-04T06:21:57.585Z,30.20
2018-03-04T06:24:25.027Z,27.07
2018-03-04T06:26:53.279Z,28.33
2018-03-04T06:29:20.726Z,29.10
2018-03-04T06:31:48.188Z,27.67
2018-03-04T06:34:15.625Z,27.70
2018-03-04T06:36:43.088Z,27.77
2018-03-04T06:39:10.549Z,28.23
2018-03-04T06:41:38.013Z,28.03
2018-03-04T06:44:06.225Z,27.40
2018-03-04T06:46:34.461Z,27.97
2018-03-04T06:49:02.676Z,29.97
2018-03-04T06:51:30.137Z,28.20
2018-03-04T06:53:58.353Z,30.40
2018-03-04T06:56:25.817Z,28.40
2018-03-04T06:58:53.299Z,30.07
2018-03-04T07:01:20.764Z,28.40
2018-03-04T07:03:48.229Z,28.57
2018-03-04T07:06:15.678Z,29.10
2018-03-04T07:08:43.143Z,28.30
2018-03-04T07:11:11.364Z,29.43
2018-03-04T07:13:38.828Z,28.47
2018-03-04T07:16:06.286Z,28.37
2018-03-04T07:18:33.748Z,28.60
2018-03-04T07:21:01.201Z,30.40
2018-03-04T07:23:29.461Z,31.20
2018-03-04T07:25:57.647Z,29.50
2018-03-04T07:28:25.113Z,29.03
2018-03-04T07:30:52.574Z,30.20
2018-03-04T07:33:20.089Z,29.87
2018-03-04T07:35:48.301Z,31.10
2018-03-04T07:38:15.764Z,29.03
2018-03-04T07:40:43.323Z,30.90
2018-03-04T07:43:11.514Z,29.47
2018-03-04T07:45:38.956Z,31.03
2018-03-04T07:48:06.420Z,30.17
2018-03-04T07:50:33.873Z,30.60
2018-03-04T07:53:01.348Z,30.07
2018-03-04T07:55:28.806Z,30.33
2018-03-04T07:57:56.269Z,30.70
2018-03-04T08:00:23.721Z,31.03
2018-03-04T08:02:51.187Z,30.90
2018-03-04T08:05:18.637Z,31.60
2018-03-04T08:07:46.107Z,32.53
2018-03-04T08:10:15.076Z,31.40
2018-03-04T08:12:42.544Z,32.40
2018-03-04T08:15:09.997Z,30.07
2018-03-04T08:17:37.458Z,30.67
2018-03-04T08:20:04.911Z,31.17
2018-03-04T08:22:32.372Z,30.87
2018-03-04T08:28:14.671Z,31.70
2018-03-04T08:30:42.129Z,31.33
2018-03-04T08:33:09.596Z,31.90
2018-03-04T08:35:37.046Z,32.80
2018-03-04T08:38:04.501Z,32.50
2018-03-04T08:40:31.957Z,33.77
2018-03-04T08:42:59.425Z,33.00
2018-03-04T08:45:26.878Z,33.93
2018-03-04T08:47:54.341Z,32.70
2018-03-04T08:50:21.801Z,34.27
2018-03-04T08:52:49.272Z,33.70
2018-03-04T08:55:17.473Z,34.10
2018-03-04T08:57:45.702Z,34.80
2018-03-04T09:00:13.158Z,34.57
2018-03-04T09:02:40.625Z,35.17
2018-03-04T09:05:08.075Z,33.97
2018-03-04T09:07:35.546Z,33.70
2018-03-04T09:10:03.008Z,34.83
2018-03-04T09:12:30.480Z,33.47
2018-03-04T09:14:57.932Z,35.83
2018-03-04T09:17:25.373Z,34.40
2018-03-04T09:19:52.875Z,36.33
2018-03-04T09:22:20.308Z,34.37
2018-03-04T09:24:47.765Z,34.47
2018-03-04T09:27:15.232Z,37.77
2018-03-04T09:29:42.680Z,37.50
2018-03-04T09:32:10.141Z,37.50
2018-03-04T09:34:37.594Z,36.23
2018-03-04T09:37:05.088Z,37.60
2018-03-04T09:39:32.498Z,39.20
2018-03-04T09:41:59.956Z,37.70
2018-03-04T09:44:27.425Z,38.17
2018-03-04T09:46:54.886Z,40.57
2018-03-04T09:49:22.345Z,40.80
2018-03-04T09:51:49.806Z,40.80
2018-03-04T09:54:18.058Z,41.20
2018-03-04T09:56:45.514Z,41.93
2018-03-04T09:59:12.974Z,38.53
2018-03-04T10:01:40.454Z,40.17
2018-03-04T10:04:07.917Z,39.70
2018-03-04T10:06:36.137Z,41.07
2018-03-04T10:09:03.633Z,39.10
2018-03-04T10:11:31.850Z,39.83
2018-03-04T10:13:59.301Z,40.53
2018-03-04T10:16:26.816Z,40.43
2018-03-04T10:18:54.289Z,39.80
2018-03-04T10:21:21.755Z,41.27
2018-03-04T10:23:49.993Z,41.90
2018-03-04T10:26:17.445Z,43.90
2018-03-04T10:28:44.898Z,41.47
2018-03-04T10:31:12.354Z,42.70
2018-03-04T10:33:39.818Z,43.60
2018-03-04T10:36:07.264Z,43.90
2018-03-04T10:38:34.741Z,41.97
2018-03-04T10:41:02.206Z,43.93
2018-03-04T10:43:29.688Z,44.50
2018-03-04T10:45:57.914Z,43.07
2018-03-04T10:48:25.377Z,41.83
2018-03-04T10:50:52.833Z,45.20
2018-03-04T10:53:20.320Z,44.10
2018-03-04T10:55:47.783Z,45.20
2018-03-04T10:58:15.229Z,44.60
2018-03-04T11:00:48.116Z,44.00
2018-03-04T11:03:15.984Z,43.03
2018-03-04T11:05:43.437Z,45.17
2018-03-04T11:08:10.896Z,43.20
2018-03-04T11:10:38.353Z,45.27
2018-03-04T11:13:05.822Z,44.67
2018-03-04T11:15:33.297Z,45.57
2018-03-04T11:18:00.758Z,43.77
2018-03-04T11:20:28.998Z,45.47
2018-03-04T11:22:56.449Z,45.20
2018-03-04T11:25:23.914Z,44.43
2018-03-04T11:27:51.369Z,44.23
2018-03-04T11:30:18.828Z,45.00
2018-03-04T11:32:46.281Z,43.87
2018-03-04T11:35:13.748Z,44.73
2018-03-04T11:37:41.192Z,44.20
2018-03-04T11:40:08.661Z,45.47
2018-03-04T11:42:36.128Z,45.87
2018-03-04T11:45:03.613Z,45.97
2018-03-04T11:47:31.082Z,48.00
2018-03-04T11:49:58.563Z,45.43
2018-03-04T11:52:26.038Z,46.00
2018-03-04T11:54:53.535Z,48.30
2018-03-04T11:57:21.753Z,46.00
2018-03-04T11:59:49.212Z,46.80
2018-03-04T12:02:16.673Z,46.33
2018-03-04T12:04:44.145Z,48.50
2018-03-04T12:07:11.628Z,45.03
2018-03-04T12:09:39.115Z,45.20
2018-03-04T12:12:07.335Z,46.83
2018-03-04T12:14:34.796Z,45.47
2018-03-04T12:17:02.262Z,45.77
2018-03-04T12:19:29.741Z,47.47
2018-03-04T12:21:57.965Z,47.53
2018-03-04T12:24:25.440Z,48.07
2018-03-04T12:26:52.905Z,49.17
2018-03-04T12:29:20.376Z,47.20
2018-03-04T12:31:47.832Z,46.93
2018-03-04T12:34:15.292Z,49.63
2018-03-04T12:36:42.758Z,48.30
2018-03-04T12:39:10.217Z,47.07
2018-03-04T12:41:37.675Z,48.97
2018-03-04T12:44:05.902Z,50.03
2018-03-04T12:46:33.359Z,48.20
2018-03-04T12:49:00.831Z,50.00
2018-03-04T12:51:28.301Z,49.87
2018-03-04T12:53:55.781Z,49.30
2018-03-04T12:56:24.008Z,49.83
2018-03-04T12:58:51.481Z,49.60
2018-03-04T13:01:18.997Z,51.17
2018-03-04T13:03:46.414Z,50.17
2018-03-04T13:06:13.884Z,47.87
2018-03-04T13:08:41.324Z,35.30
2018-03-04T13:11:09.577Z,36.67
2018-03-04T13:13:37.039Z,35.67
2018-03-04T13:16:04.505Z,36.23
2018-03-04T13:18:31.974Z,38.10
2018-03-04T13:20:59.481Z,39.17
2018-03-04T13:23:26.935Z,35.60
2018-03-04T13:25:54.435Z,38.83
2018-03-04T13:28:21.920Z,36.70
2018-03-04T13:30:49.376Z,37.80
2018-03-04T13:33:17.609Z,36.70
2018-03-04T13:35:45.094Z,35.90
2018-03-04T13:38:12.569Z,36.40
2018-03-04T13:40:40.064Z,36.40
2018-03-04T13:43:08.257Z,36.53
2018-03-04T13:45:35.741Z,34.30
2018-03-04T13:48:03.213Z,35.73
2018-03-04T13:50:31.494Z,36.57
2018-03-04T13:52:58.957Z,34.67
2018-03-04T13:55:27.213Z,35.17
2018-03-04T13:57:54.685Z,32.67
2018-03-04T14:00:22.149Z,32.80
2018-03-04T14:02:50.385Z,32.73
2018-03-04T14:05:17.858Z,33.33
2018-03-04T14:07:45.356Z,33.60
2018-03-04T14:10:13.565Z,32.57
2018-03-04T14:12:41.035Z,33.53
2018-03-04T14:15:08.856Z,33.90
2018-03-04T14:17:36.344Z,32.43
2018-03-04T14:20:03.819Z,33.07
2018-03-04T14:22:31.294Z,33.53
2018-03-04T14:24:58.769Z,32.37
2018-03-04T14:27:27.009Z,34.20
2018-03-04T14:29:54.477Z,32.67
2018-03-04T14:32:21.943Z,31.73
2018-03-04T14:34:49.424Z,33.00
2018-03-04T14:37:17.671Z,32.50
2018-03-04T14:39:45.137Z,30.93
2018-03-04T14:42:12.594Z,33.37
2018-03-04T14:44:40.071Z,30.23
2018-03-04T14:47:08.317Z,29.50
2018-03-04T14:49:35.802Z,30.87
2018-03-04T14:52:04.030Z,30.77
2018-03-04T14:54:31.512Z,31.03
2018-03-04T14:56:58.993Z,29.87
2018-03-04T14:59:26.453Z,29.87
2018-03-04T15:01:54.723Z,30.80
2018-03-04T15:04:22.956Z,29.40
2018-03-04T15:06:50.483Z,30.73
2018-03-04T15:09:17.886Z,30.40
2018-03-04T15:11:45.373Z,30.27
2018-03-04T15:14:13.601Z,29.77
2018-03-04T15:16:41.069Z,30.03
2018-03-04T15:19:08.802Z,30.23
2018-03-04T15:21:36.268Z,29.13
2018-03-04T15:24:03.717Z,29.60
2018-03-04T15:26:31.201Z,28.50
2018-03-04T15:28:58.656Z,28.70
2018-03-04T15:31:26.121Z,28.33
2018-03-04T15:33:53.586Z,27.47
2018-03-04T15:36:21.182Z,28.60
2018-03-04T15:38:49.401Z,26.93
2018-03-04T15:41:16.881Z,27.50
2018-03-04T15:43:44.341Z,26.97
2018-03-04T15:46:11.841Z,27.90
2018-03-04T15:48:39.302Z,28.47
2018-03-04T15:51:06.761Z,27.57
2018-03-04T15:53:34.208Z,28.40
2018-03-04T15:56:01.676Z,28.07
2018-03-04T15:58:29.133Z,27.27
2018-03-04T16:00:56.596Z,27.47
2018-03-04T16:03:24.087Z,27.40
2018-03-04T16:05:51.556Z,27.53
2018-03-04T16:08:19.013Z,26.50
2018-03-04T16:10:46.505Z,26.10
2018-03-04T16:13:14.748Z,26.70
2018-03-04T16:15:42.234Z,25.40
2018-03-04T16:18:10.540Z,25.50
2018-03-04T16:20:38.017Z,25.87
2018-03-04T16:23:05.469Z,25.43
2018-03-04T16:25:32.967Z,26.20
2018-03-04T16:28:00.449Z,26.10
2018-03-04T16:30:28.356Z,25.03
2018-03-04T16:32:55.841Z,25.77
2018-03-04T16:35:23.325Z,26.90
2018-03-04T16:37:50.781Z,26.20
2018-03-04T16:40:18.252Z,24.60
2018-03-04T16:42:46.495Z,27.20
2018-03-04T16:45:13.972Z,25.57
2018-03-04T16:47:41.435Z,24.70
2018-03-04T16:50:09.673Z,25.97
2018-03-04T16:52:37.146Z,24.67
2018-03-04T16:55:04.621Z,25.10
2018-03-04T16:57:32.081Z,25.43
2018-03-04T17:00:00.321Z,24.70
2018-03-04T17:02:27.801Z,26.13
2018-03-04T17:04:55.277Z,25.13
2018-03-04T17:07:23.546Z,24.33
2018-03-04T17:09:50.994Z,23.87
2018-03-04T17:12:18.481Z,24.37
2018-03-04T17:14:45.944Z,23.00
2018-03-04T17:17:13.443Z,24.70
2018-03-04T17:19:40.928Z,24.43
2018-03-04T17:22:13.397Z,24.20
2018-03-04T17:24:40.868Z,23.47
2018-03-04T17:27:08.329Z,23.43
2018-03-04T17:29:35.782Z,24.33
2018-03-04T17:32:03.243Z,22.93
2018-03-04T17:34:31.470Z,23.77
2018-03-04T17:36:58.953Z,24.17
2018-03-04T17:39:26.404Z,23.73
2018-03-04T17:41:53.918Z,23.13
2018-03-04T17:44:21.376Z,24.93
2018-03-04T17:46:48.852Z,24.90
2018-03-04T17:49:16.310Z,23.97
2018-03-04T17:51:43.778Z,22.60
2018-03-04T17:54:11.236Z,24.20
2018-03-04T17:56:38.750Z,24.27
2018-03-04T17:59:06.201Z,24.83
2018-03-04T18:01:33.696Z,23.10
2018-03-04T18:04:01.159Z,23.37
2018-03-04T18:06:28.622Z,23.10
2018-03-04T18:08:56.080Z,22.33
2018-03-04T18:11:23.585Z,23.40
2018-03-04T18:13:51.042Z,23.87
2018-03-04T18:16:20.008Z,23.67
2018-03-04T18:18:47.560Z,23.57
2018-03-04T18:21:14.962Z,25.37
2018-03-04T18:23:42.432Z,23.93
2018-03-04T18:26:09.884Z,25.50
2018-03-04T18:28:38.144Z,26.37
2018-03-04T18:31:05.586Z,25.63
2018-03-04T18:33:33.053Z,27.00
2018-03-04T18:36:00.518Z,25.70
2018-03-04T18:38:28.751Z,25.90
2018-03-04T18:40:56.221Z,26.43
2018-03-04T18:43:24.449Z,24.43
2018-03-04T18:45:51.896Z,25.63
2018-03-04T18:48:19.382Z,26.27
2018-03-04T18:50:46.841Z,24.47
2018-03-04T18:53:14.325Z,25.50
2018-03-04T18:55:41.789Z,25.40
2018-03-04T18:58:09.264Z,24.50
2018-03-04T19:00:36.730Z,23.90
2018-03-04T19:03:04.966Z,24.80
2018-03-04T19:05:32.432Z,25.57
2018-03-04T19:07:59.912Z,27.83
2018-03-04T19:10:27.382Z,26.40
2018-03-04T19:12:55.611Z,27.40
2018-03-04T19:15:23.074Z,28.37
2018-03-04T19:17:51.285Z,26.73
2018-03-04T19:20:18.760Z,27.07
2018-03-04T19:22:46.219Z,27.00
2018-03-04T19:25:14.480Z,30.43
2018-03-04T19:27:42.701Z,27.37
2018-03-04T19:30:10.185Z,29.97
2018-03-04T19:32:37.649Z,31.07
2018-03-04T19:35:05.888Z,30.63
2018-03-04T19:37:33.345Z,32.40
2018-03-04T19:40:00.818Z,31.70
2018-03-04T19:42:28.276Z,32.40
2018-03-04T19:44:55.740Z,31.93
2018-03-04T19:47:23.201Z,30.97
2018-03-04T19:49:50.707Z,31.80
2018-03-04T19:52:18.940Z,31.10
2018-03-04T19:54:46.422Z,30.63
2018-03-04T19:57:13.864Z,32.93
2018-03-04T19:59:41.332Z,31.50
2018-03-04T20:02:08.789Z,32.87
2018-03-04T20:04:36.250Z,32.10
2018-03-04T20:07:04.497Z,32.53
2018-03-04T20:09:31.982Z,32.03
2018-03-04T20:12:00.221Z,32.67
2018-03-04T20:14:27.693Z,31.97
2018-03-04T20:16:55.174Z,31.27
2018-03-04T20:19:22.631Z,31.47
2018-03-04T20:21:50.091Z,32.83
2018-03-04T20:24:17.546Z,31.57
2018-03-04T20:26:45.004Z,30.17
2018-03-04T20:29:12.476Z,32.70
2018-03-04T20:31:40.708Z,31.87
2018-03-04T20:34:08.195Z,31.30
2018-03-04T20:36:35.649Z,31.60
2018-03-04T20:39:03.108Z,30.77
2018-03-04T20:41:30.568Z,31.00
2018-03-04T20:43:58.029Z,31.93
2018-03-04T20:46:26.310Z,31.13
2018-03-04T20:48:53.787Z,30.50
2018-03-04T20:51:21.266Z,29.60
2018-03-04T20:53:48.729Z,31.40
2018-03-04T20:56:16.233Z,29.20
2018-03-04T20:58:43.685Z,29.60
2018-03-04T21:01:11.148Z,29.13
2018-03-04T21:03:39.389Z,30.00
2018-03-04T21:06:06.882Z,29.57
2018-03-04T21:08:35.138Z,30.93
2018-03-04T21:11:02.613Z,28.20
2018-03-04T21:13:30.074Z,28.83
2018-03-04T21:15:59.251Z,29.23
2018-03-04T21:18:26.728Z,27.13
2018-03-04T21:20:54.194Z,27.77
2018-03-04T21:23:23.119Z,29.03
2018-03-04T21:25:50.613Z,28.37
2018-03-04T21:28:18.077Z,30.80
2018-03-04T21:30:45.549Z,29.70
2018-03-04T21:33:13.018Z,30.10
2018-03-04T21:35:40.472Z,28.20
2018-03-04T21:38:08.721Z,28.60
2018-03-04T21:40:36.987Z,29.43
2018-03-04T21:43:04.448Z,27.83
2018-03-04T21:45:31.930Z,28.87
2018-03-04T21:47:59.389Z,27.87
2018-03-04T21:50:26.845Z,28.73
2018-03-04T21:52:54.301Z,28.13
2018-03-04T21:55:21.762Z,28.73
2018-03-04T21:57:49.268Z,27.37
2018-03-04T22:00:16.733Z,28.63
2018-03-04T22:02:44.197Z,28.30
2018-03-04T22:05:12.422Z,27.50
2018-03-04T22:07:40.666Z,27.57
2018-03-04T22:10:08.156Z,26.27
2018-03-04T22:12:36.398Z,28.33
2018-03-04T22:15:03.854Z,27.90
2018-03-04T22:17:31.386Z,27.37
2018-03-04T22:19:58.858Z,26.73
2018-03-04T22:22:26.837Z,28.03
2018-03-04T22:24:54.326Z,27.97
2018-03-04T22:27:22.577Z,27.93
2018-03-04T22:29:50.055Z,28.67
2018-03-04T22:32:18.656Z,28.20
2018-03-04T22:34:46.381Z,28.20
2018-03-04T22:37:13.866Z,27.67
2018-03-04T22:39:41.338Z,26.40
2018-03-04T22:42:08.798Z,26.50
2018-03-04T22:44:36.250Z,26.90
2018-03-04T22:47:04.510Z,26.97
2018-03-04T22:49:31.966Z,27.50
2018-03-04T22:51:59.424Z,26.73
2018-03-04T22:54:26.887Z,25.53
2018-03-04T22:56:54.353Z,26.33
2018-03-04T22:59:22.598Z,26.27
2018-03-04T23:01:50.078Z,26.87
2018-03-04T23:04:17.541Z,26.53
2018-03-04T23:06:44.996Z,26.10
2018-03-04T23:09:13.265Z,25.43
2018-03-04T23:11:41.520Z,25.83
2018-03-04T23:14:13.494Z,25.80
2018-03-04T23:16:41.049Z,26.00
2018-03-04T23:19:08.525Z,25.80
2018-03-04T23:21:35.985Z,25.23
2018-03-04T23:24:03.493Z,24.87
2018-03-04T23:26:30.968Z,25.40
2018-03-04T23:28:58.449Z,25.57
2018-03-04T23:31:25.912Z,25.20
2018-03-04T23:33:53.430Z,25.10
2018-03-04T23:36:21.050Z,24.60
2018-03-04T23:38:48.671Z,24.50
2018-03-04T23:41:16.145Z,25.30
2018-03-04T23:43:43.609Z,26.10
2018-03-04T23:46:11.073Z,25.80
2018-03-04T23:48:38.603Z,24.80
2018-03-04T23:51:06.452Z,24.47
2018-03-04T23:53:35.342Z,22.63
2018-03-04T23:56:03.725Z,24.67
2018-03-04T23:58:31.193Z,24.70
